Terminal Aerodrome Forecast
Issued by NWS Charleston, WV

Current Version | Previous Version | Graphics & Text | Print | Product List | Glossary On
Versions: 1 2 3 4 5 6 7 8 9 10 11 12 13 14 15 16 17 18 19 20 21 22 23 24 25
000
FTUS41 KRLX 211100
TAFEKN
TAF
KEKN 211125Z 2112/2212 00000KT 1SM BR BKN002 BKN035
     FM211400 00000KT 4SM BR FEW003 SCT030
     FM211500 00000KT P6SM SCT030
     FM212000 VRB03KT P6SM BKN035
     FM220200 00000KT 4SM BR BKN035
     FM220600 00000KT 2SM BR SCT030
     FM220700 00000KT 1/4SM FG SCT250=

USA.gov is the U.S. government's official web portal to all federal, state and local government web resources and services.